Tropical Cyclones
[Index]
Main Index Home Page Stock Weather Photos Extreme Storms Discussion Storm News and Storm Chasing Reports Tropical Cyclones / Hurricanes / Typhoons Weather Data and Links Wild Fires / Bushfires Weather Observation Techniques Weather Picture Catalogue Tornado Pictures and Reports Stock Video Footage and DVDs for sale
Season 2000-2001 Tropical Cyclone CHARLY Track Map
Season 2000-2001 Summaries: [BoM-AU] [JTWC-AU] [JTWC-SIO] [JTWC-SPAC] [JTWC-SH]
<<- Previous TC | JTWC 2000-2001 Season | Next TC ->>

click for intensity scale information  Lat/long Grid: Show Hide

 Date Labels: Show Hide

Joint Typhoon Warning Centre Cyclone Data

Name: CHARLY

17 Jan 2001 12:00 UTC to 26 Jan 2001 00:00 UTC

    date/time    lat    long     hPa   cat  kts
2001-01-17 12   12.3    86.4                  25          
2001-01-17 18   12.4    86.5                  25          
2001-01-18 00   12.5    86.5                  25          
2001-01-18 06   12.7    86.3                  25          
2001-01-18 12   13.0    86.0                  25          
2001-01-18 18   13.3    85.6                  25          
2001-01-19 00   13.6    85.2                  30          
2001-01-19 06   14.0    84.7                  30          
2001-01-19 12   14.5    84.2                  35          
2001-01-19 18   15.0    83.6            1     40          
2001-01-20 00   15.5    82.9            2     55          
2001-01-20 06   16.1    82.2            2     55          
2001-01-20 12   16.6    81.5            2     65          
2001-01-20 18   16.9    80.5            2     70          
2001-01-21 00   17.1    79.3            3     75          
2001-01-21 06   17.3    78.2            3     75          
2001-01-21 12   17.6    77.2            3     80          
2001-01-21 18   17.9    76.1            3     85          
2001-01-22 00   18.1    75.0            3     90          
2001-01-22 06   18.4    74.0            3     90          
2001-01-22 12   18.8    72.9            4    105          
2001-01-22 18   19.3    72.1            4    105          
2001-01-23 00   20.0    71.2            4    105          
2001-01-23 06   20.8    70.2            4    100          
2001-01-23 12   21.6    69.1            3     90          
2001-01-23 18   22.1    67.7            3     75          
2001-01-24 00   22.3    66.3            2     60          
2001-01-24 06   22.6    64.6            2     55          
2001-01-24 12   23.0    63.0            1     50          
2001-01-24 18   23.4    61.5            1     45          
2001-01-25 00   23.8    60.2                  35          
2001-01-25 06   24.5    59.1                  35          
2001-01-25 12   24.9    58.0                  30          
2001-01-25 18   25.2    57.5                  30          
2001-01-26 00   25.3    56.9                  25          
Winds are 1-min average.

Tropical cyclone tracks developed by Michael Bath using data from the Joint Typhoon Warning Centre Best Tracks and Google Maps.


[Australian Severe Weather index] [Copyright Notice] [Email Contacts] [Search This Site] [Privacy Policy]
Document: tropical_cyclone_charly.htm Updated: 28 June 2017